createdAt,value
2022-09-06T00:01:17.211Z,69.78
2022-09-06T00:03:45.084Z,69.52
2022-09-06T00:06:14.747Z,69.69
2022-09-06T00:08:42.711Z,70.93
2022-09-06T00:11:10.493Z,70.93
2022-09-06T00:13:38.667Z,70.63
2022-09-06T00:16:08.741Z,70.83
2022-09-06T00:18:37.842Z,72.31
2022-09-06T00:21:05.931Z,70.81
2022-09-06T00:23:33.758Z,70.77
2022-09-06T00:26:05.150Z,71.51
2022-09-06T00:28:33.019Z,70.57
2022-09-06T00:31:00.753Z,70.47
2022-09-06T00:33:28.631Z,70.53
2022-09-06T00:36:01.316Z,70.41
2022-09-06T00:38:29.199Z,71.51
2022-09-06T00:40:57.418Z,71.62
2022-09-06T00:43:25.303Z,71.68
2022-09-06T00:45:54.555Z,71.78
2022-09-06T00:48:22.647Z,71.12
2022-09-06T00:50:52.194Z,70.79
2022-09-06T00:53:26.003Z,72.40
2022-09-06T00:55:54.300Z,71.31
2022-09-06T00:58:22.574Z,70.49
2022-09-06T01:00:50.219Z,72.03
2022-09-06T01:03:19.082Z,72.72
2022-09-06T01:05:54.722Z,72.49
2022-09-06T01:08:36.923Z,74.35
2022-09-06T01:11:29.756Z,74.62
2022-09-06T01:14:03.804Z,73.76
2022-09-06T01:16:38.394Z,73.88
2022-09-06T01:19:34.574Z,74.16
2022-09-06T01:22:13.255Z,72.88
2022-09-06T01:25:05.283Z,74.90
2022-09-06T01:28:12.655Z,75.07
2022-09-06T01:30:45.700Z,76.34
2022-09-06T01:33:17.789Z,76.08
2022-09-06T01:35:49.576Z,75.11
2022-09-06T01:38:18.121Z,76.62
2022-09-06T01:40:45.932Z,77.09
2022-09-06T01:43:21.458Z,76.33
2022-09-06T01:45:57.879Z,76.42
2022-09-06T01:48:30.558Z,77.52
2022-09-06T01:51:03.270Z,76.95
2022-09-06T01:54:01.156Z,77.64
2022-09-06T01:56:34.158Z,76.24
2022-09-06T01:59:21.292Z,76.84
2022-09-06T02:01:57.741Z,76.35
2022-09-06T02:04:29.402Z,75.75
2022-09-06T02:07:01.248Z,76.23
2022-09-06T02:09:32.439Z,76.70
2022-09-06T02:12:02.050Z,76.06
2022-09-06T02:14:32.945Z,76.29
2022-09-06T02:17:03.292Z,77.42
2022-09-06T02:19:36.103Z,78.52
2022-09-06T02:22:07.003Z,77.23
2022-09-06T02:24:37.374Z,76.79
2022-09-06T02:27:05.406Z,76.49
2022-09-06T02:29:33.103Z,77.56
2022-09-06T02:32:09.522Z,76.69
2022-09-06T02:34:38.861Z,77.38
2022-09-06T02:37:06.772Z,75.66
2022-09-06T02:39:34.640Z,75.90
2022-09-06T02:42:02.782Z,76.35
2022-09-06T02:44:30.343Z,75.64
2022-09-06T02:46:57.972Z,76.66
2022-09-06T02:49:27.280Z,74.56
2022-09-06T02:51:54.832Z,74.18
2022-09-06T02:54:22.476Z,74.68
2022-09-06T02:56:52.462Z,74.18
2022-09-06T02:59:22.215Z,74.14
2022-09-06T03:01:49.968Z,75.32
2022-09-06T03:04:18.337Z,74.62
2022-09-06T03:06:47.371Z,73.41
2022-09-06T03:09:14.990Z,74.31
2022-09-06T03:11:42.631Z,72.28
2022-09-06T03:14:11.183Z,74.18
2022-09-06T03:16:39.577Z,72.38
2022-09-06T03:19:07.232Z,74.62
2022-09-06T03:21:35.092Z,74.22
2022-09-06T03:24:04.890Z,73.74
2022-09-06T03:26:32.823Z,72.97
2022-09-06T03:29:00.868Z,72.39
2022-09-06T03:31:28.491Z,73.83
2022-09-06T03:33:56.220Z,74.64
2022-09-06T03:36:23.888Z,73.54
2022-09-06T03:38:53.959Z,73.54
2022-09-06T03:41:23.142Z,72.97
2022-09-06T03:43:50.998Z,72.42
2022-09-06T03:46:18.963Z,71.84
2022-09-06T03:48:47.206Z,70.50
2022-09-06T03:51:15.660Z,71.25
2022-09-06T03:53:43.304Z,70.35
2022-09-06T03:56:11.115Z,71.83
2022-09-06T03:58:40.088Z,71.23
2022-09-06T04:01:09.497Z,70.63
2022-09-06T04:03:38.444Z,73.16
2022-09-06T04:06:07.829Z,71.00
2022-09-06T04:08:36.507Z,71.98
2022-09-06T04:11:04.680Z,72.79
2022-09-06T04:13:33.392Z,71.38
2022-09-06T04:16:02.806Z,71.27
2022-09-06T04:18:31.005Z,71.23
2022-09-06T04:20:59.857Z,71.52
2022-09-06T04:23:29.319Z,73.29
2022-09-06T04:25:58.975Z,74.61
2022-09-06T04:28:28.024Z,73.68
2022-09-06T04:31:01.968Z,74.58
2022-09-06T04:33:34.521Z,72.20
2022-09-06T04:36:03.776Z,72.43
2022-09-06T04:38:36.656Z,72.21
2022-09-06T04:41:05.782Z,73.67
2022-09-06T04:43:33.707Z,73.37
2022-09-06T04:46:05.009Z,75.67
2022-09-06T04:48:34.180Z,76.16
2022-09-06T04:51:01.815Z,76.47
2022-09-06T04:53:32.639Z,76.71
2022-09-06T04:56:00.506Z,76.86
2022-09-06T04:58:28.384Z,76.62
2022-09-06T05:00:56.187Z,75.28
2022-09-06T05:03:23.798Z,75.25
2022-09-06T05:08:49.067Z,75.36
2022-09-06T05:11:17.090Z,75.88
2022-09-06T05:13:46.423Z,76.07
2022-09-06T05:16:14.406Z,75.42
2022-09-06T05:18:42.112Z,76.86
2022-09-06T05:21:11.587Z,78.08
2022-09-06T05:23:39.226Z,77.96
2022-09-06T05:26:07.198Z,77.91
2022-09-06T05:28:35.019Z,79.59
2022-09-06T05:31:09.792Z,84.58
2022-09-06T05:33:38.146Z,93.38
2022-09-06T05:36:07.130Z,96.11
2022-09-06T05:38:36.322Z,99.63
2022-09-06T05:41:03.966Z,99.41
2022-09-06T05:43:31.560Z,100.00
2022-09-06T05:45:59.738Z,100.00
2022-09-06T05:48:28.090Z,100.00
2022-09-06T05:51:02.847Z,99.36
2022-09-06T05:53:36.419Z,99.37
2022-09-06T05:56:05.337Z,100.00
2022-09-06T05:58:33.437Z,100.00
2022-09-06T06:01:08.946Z,100.00
2022-09-06T06:03:36.502Z,100.00
2022-09-06T06:06:04.022Z,100.00
2022-09-06T06:08:31.578Z,100.00
2022-09-06T06:11:01.310Z,100.00
2022-09-06T06:13:29.741Z,100.00
2022-09-06T06:15:57.439Z,100.00
2022-09-06T06:18:25.044Z,100.00
2022-09-06T06:20:52.745Z,100.00
2022-09-06T06:23:20.487Z,100.00
2022-09-06T06:25:47.998Z,99.94
2022-09-06T06:28:17.729Z,100.00
2022-09-06T06:30:45.379Z,100.00
2022-09-06T06:33:12.964Z,99.88
2022-09-06T06:35:40.659Z,98.61
2022-09-06T06:38:08.220Z,99.14
2022-09-06T06:40:35.735Z,98.67
2022-09-06T06:43:03.386Z,100.00
2022-09-06T06:45:32.309Z,100.00
2022-09-06T06:47:59.903Z,100.00
2022-09-06T06:50:27.481Z,100.00
2022-09-06T06:52:55.206Z,100.00
2022-09-06T06:55:22.755Z,99.91
2022-09-06T06:57:50.291Z,100.00
2022-09-06T07:00:18.432Z,100.00
2022-09-06T07:02:47.318Z,99.58
2022-09-06T07:08:02.767Z,99.88
2022-09-06T07:12:58.107Z,100.00
2022-09-06T07:15:26.079Z,100.00
2022-09-06T07:17:56.932Z,100.00
2022-09-06T07:20:26.010Z,100.00
2022-09-06T07:25:48.839Z,100.00
2022-09-06T07:28:16.355Z,100.00
2022-09-06T07:30:44.202Z,100.00
2022-09-06T07:33:13.186Z,100.00
2022-09-06T07:35:41.635Z,100.00
2022-09-06T07:38:09.232Z,100.00
2022-09-06T07:40:36.754Z,100.00
2022-09-06T07:43:04.278Z,96.56
2022-09-06T07:45:31.784Z,95.03
2022-09-06T07:47:59.757Z,95.50
2022-09-06T07:50:47.347Z,94.06
2022-09-06T07:53:22.956Z,94.07
2022-09-06T07:55:56.691Z,89.22
2022-09-06T07:58:24.378Z,86.64
2022-09-06T08:00:51.984Z,89.32
2022-09-06T08:03:19.910Z,85.91
2022-09-06T08:11:28.280Z,80.77
2022-09-06T08:13:56.575Z,82.99
2022-09-06T08:16:25.439Z,81.45
2022-09-06T08:18:53.618Z,79.88
2022-09-06T08:21:24.439Z,81.43
2022-09-06T08:23:53.375Z,80.21
2022-09-06T08:26:22.346Z,77.03
2022-09-06T08:28:54.858Z,78.99
2022-09-06T08:31:22.531Z,78.10
2022-09-06T08:33:50.125Z,75.37
2022-09-06T08:36:17.802Z,75.72
2022-09-06T08:38:46.711Z,75.52
2022-09-06T08:41:24.836Z,71.71
2022-09-06T08:46:49.284Z,72.22
2022-09-06T08:49:17.024Z,71.51
2022-09-06T08:51:56.701Z,71.09
2022-09-06T08:54:31.314Z,69.21
2022-09-06T08:57:05.716Z,70.58
2022-09-06T08:59:38.732Z,69.51
2022-09-06T09:02:12.628Z,69.40
2022-09-06T09:04:43.855Z,69.33
2022-09-06T09:07:21.760Z,67.24
2022-09-06T09:09:51.652Z,69.32
2022-09-06T09:12:21.359Z,67.51
2022-09-06T09:14:50.063Z,66.77
2022-09-06T09:17:21.652Z,66.96
2022-09-06T09:19:49.580Z,67.01
2022-09-06T09:22:20.254Z,65.58
2022-09-06T09:24:51.779Z,65.79
2022-09-06T09:27:21.518Z,64.21
2022-09-06T09:32:49.496Z,63.99
2022-09-06T09:35:28.258Z,66.10
2022-09-06T09:38:07.702Z,63.53
2022-09-06T09:40:41.734Z,61.87
2022-09-06T09:43:12.646Z,62.06
2022-09-06T09:45:40.259Z,62.71
2022-09-06T09:48:20.230Z,63.51
2022-09-06T09:50:48.164Z,61.63
2022-09-06T09:53:18.682Z,61.11
2022-09-06T09:55:48.057Z,61.70
2022-09-06T09:58:23.690Z,61.62
2022-09-06T10:01:10.989Z,60.69
2022-09-06T10:09:19.163Z,58.75
2022-09-06T10:11:55.318Z,59.39
2022-09-06T10:14:31.513Z,60.21
2022-09-06T10:17:00.160Z,58.26
2022-09-06T10:19:41.139Z,58.89
2022-09-06T10:22:15.308Z,59.39
2022-09-06T10:24:54.239Z,58.77
2022-09-06T10:27:27.015Z,57.78
2022-09-06T10:29:59.321Z,57.88
2022-09-06T10:32:35.761Z,56.57
2022-09-06T10:35:23.726Z,57.17
2022-09-06T10:38:09.077Z,55.31
2022-09-06T10:40:41.990Z,54.78
2022-09-06T10:43:17.328Z,55.78
2022-09-06T10:45:47.228Z,56.15
2022-09-06T10:48:19.550Z,55.44
2022-09-06T10:50:51.630Z,55.80
2022-09-06T10:53:28.835Z,55.68
2022-09-06T10:56:03.185Z,55.17
2022-09-06T11:01:28.653Z,54.36
2022-09-06T11:04:02.262Z,53.23
2022-09-06T11:06:41.638Z,54.02
2022-09-06T11:09:13.595Z,53.17
2022-09-06T11:11:45.399Z,53.75
2022-09-06T11:14:15.535Z,54.64
2022-09-06T11:16:48.156Z,53.34
2022-09-06T11:19:21.617Z,52.85
2022-09-06T11:22:06.228Z,54.08
2022-09-06T11:24:45.655Z,53.05
2022-09-06T11:27:15.917Z,52.22
2022-09-06T11:29:46.821Z,52.21
2022-09-06T11:32:33.968Z,51.86
2022-09-06T11:35:04.514Z,51.77
2022-09-06T11:37:33.857Z,51.12
2022-09-06T11:43:17.409Z,51.47
2022-09-06T11:45:49.854Z,51.00
2022-09-06T11:48:45.923Z,50.78
2022-09-06T11:51:33.271Z,51.21
2022-09-06T11:54:22.732Z,48.36
2022-09-06T11:56:55.637Z,48.75
2022-09-06T11:59:52.369Z,50.08
2022-09-06T12:02:39.285Z,47.94
2022-09-06T12:05:26.376Z,47.81
2022-09-06T12:08:28.142Z,48.06
2022-09-06T12:11:01.638Z,49.07
2022-09-06T12:13:44.020Z,49.63
2022-09-06T12:16:12.558Z,48.91
2022-09-06T12:19:01.230Z,47.14
2022-09-06T12:21:42.234Z,47.65
2022-09-06T12:24:48.534Z,46.43
2022-09-06T12:27:17.355Z,47.98
2022-09-06T12:29:55.185Z,47.53
2022-09-06T12:32:26.678Z,45.83
2022-09-06T12:37:51.351Z,45.90
2022-09-06T12:40:20.097Z,47.74
2022-09-06T12:42:48.874Z,44.57
2022-09-06T12:45:17.021Z,46.60
2022-09-06T12:47:45.224Z,43.62
2022-09-06T12:50:18.444Z,43.15
2022-09-06T12:52:48.489Z,43.84
2022-09-06T12:55:19.977Z,43.66
2022-09-06T12:57:53.287Z,43.47
2022-09-06T13:00:21.694Z,42.10
2022-09-06T13:03:05.644Z,41.82
2022-09-06T13:05:38.858Z,42.39
2022-09-06T13:08:08.839Z,42.22
2022-09-06T13:10:36.791Z,42.45
2022-09-06T13:13:05.235Z,40.79
2022-09-06T13:15:33.026Z,37.62
2022-09-06T13:18:22.558Z,36.55
2022-09-06T13:21:02.597Z,35.57
2022-09-06T13:23:32.661Z,34.46
2022-09-06T13:26:00.477Z,35.99
2022-09-06T13:28:29.744Z,35.43
2022-09-06T13:31:08.125Z,33.08
2022-09-06T13:33:37.615Z,33.23
2022-09-06T13:36:23.668Z,37.17
2022-09-06T13:38:56.609Z,37.95
2022-09-06T13:41:38.235Z,39.31
2022-09-06T13:45:07.499Z,39.36
2022-09-06T13:47:35.115Z,42.47
2022-09-06T13:50:03.217Z,40.72
2022-09-06T13:52:33.072Z,40.53
2022-09-06T13:55:00.768Z,40.93
2022-09-06T13:57:28.964Z,39.02
2022-09-06T13:59:57.662Z,37.61
2022-09-06T14:02:25.514Z,35.27
2022-09-06T14:04:53.834Z,34.34
2022-09-06T14:07:21.806Z,33.38
2022-09-06T14:10:54.161Z,32.21
2022-09-06T14:13:23.534Z,33.04
2022-09-06T14:15:53.218Z,32.19
2022-09-06T14:18:21.129Z,32.15
2022-09-06T14:20:53.029Z,29.71
2022-09-06T14:23:23.490Z,31.97
2022-09-06T14:25:56.677Z,32.55
2022-09-06T14:28:26.524Z,32.03
2022-09-06T14:30:54.670Z,33.02
2022-09-06T14:33:23.305Z,33.32
2022-09-06T14:39:32.042Z,31.18
2022-09-06T14:42:00.107Z,31.92
2022-09-06T14:44:29.385Z,31.80
2022-09-06T14:46:59.565Z,31.99
2022-09-06T14:49:28.911Z,31.76
2022-09-06T14:51:58.296Z,30.77
2022-09-06T14:54:29.229Z,30.31
2022-09-06T14:56:59.671Z,31.39
2022-09-06T14:59:30.127Z,33.05
2022-09-06T15:01:58.625Z,31.45
2022-09-06T15:04:27.755Z,30.38
2022-09-06T15:06:55.665Z,29.78
2022-09-06T15:09:23.719Z,29.38
2022-09-06T15:11:52.881Z,29.47
2022-09-06T15:14:22.591Z,30.84
2022-09-06T15:16:55.835Z,29.64
2022-09-06T15:19:24.689Z,29.30
2022-09-06T15:21:52.980Z,30.87
2022-09-06T15:24:21.911Z,31.25
2022-09-06T15:26:55.367Z,32.24
2022-09-06T15:29:23.088Z,34.07
2022-09-06T15:31:52.607Z,31.27
2022-09-06T15:34:21.555Z,34.80
2022-09-06T15:36:49.606Z,35.29
2022-09-06T15:39:17.663Z,34.85
2022-09-06T15:41:45.647Z,33.35
2022-09-06T15:44:15.130Z,34.58
2022-09-06T15:46:46.005Z,32.90
2022-09-06T15:49:17.528Z,32.94
2022-09-06T15:51:45.421Z,32.13
2022-09-06T15:54:15.363Z,37.22
2022-09-06T15:56:42.427Z,35.42
2022-09-06T15:59:10.935Z,36.63
2022-09-06T16:01:39.275Z,34.60
2022-09-06T16:04:10.039Z,34.85
2022-09-06T16:06:42.639Z,34.55
2022-09-06T16:09:13.635Z,32.51
2022-09-06T16:11:42.688Z,31.98
2022-09-06T16:14:12.539Z,32.82
2022-09-06T16:16:43.513Z,32.04
2022-09-06T16:19:12.293Z,31.63
2022-09-06T16:21:45.146Z,31.99
2022-09-06T16:24:15.047Z,32.60
2022-09-06T16:26:45.078Z,33.53
2022-09-06T16:29:15.066Z,32.78
2022-09-06T16:31:42.957Z,34.42
2022-09-06T16:34:13.815Z,32.21
2022-09-06T16:36:42.857Z,35.79
2022-09-06T16:39:11.786Z,35.15
2022-09-06T16:41:42.160Z,36.63
2022-09-06T16:44:19.576Z,35.87
2022-09-06T16:46:49.856Z,35.70
2022-09-06T16:49:19.167Z,36.81
2022-09-06T16:51:49.917Z,36.37
2022-09-06T16:54:19.443Z,37.28
2022-09-06T16:56:47.090Z,36.77
2022-09-06T16:59:17.210Z,36.55
2022-09-06T17:01:45.544Z,36.34
2022-09-06T17:04:14.627Z,36.23
2022-09-06T17:06:45.600Z,37.30
2022-09-06T17:09:20.650Z,36.96
2022-09-06T17:11:53.339Z,38.26
2022-09-06T17:14:21.403Z,38.64
2022-09-06T17:17:05.104Z,38.44
2022-09-06T17:19:36.449Z,38.50
2022-09-06T17:22:06.256Z,39.71
2022-09-06T17:24:36.135Z,39.89
2022-09-06T17:27:06.544Z,41.20
2022-09-06T17:29:35.040Z,41.79
2022-09-06T17:32:04.561Z,42.15
2022-09-06T17:34:33.857Z,44.13
2022-09-06T17:38:03.088Z,47.02
2022-09-06T17:40:32.625Z,49.15
2022-09-06T17:43:01.548Z,51.89
2022-09-06T17:45:30.186Z,53.67
2022-09-06T17:47:57.884Z,55.01
2022-09-06T17:50:31.567Z,56.24
2022-09-06T17:53:00.034Z,51.79
2022-09-06T17:55:28.868Z,54.44
2022-09-06T17:58:00.756Z,57.14
2022-09-06T18:00:29.310Z,55.72
2022-09-06T18:02:57.064Z,56.30
2022-09-06T18:05:25.607Z,57.43
2022-09-06T18:07:53.541Z,57.03
2022-09-06T18:10:22.216Z,58.25
2022-09-06T18:16:35.201Z,60.61
2022-09-06T18:19:05.715Z,61.61
2022-09-06T18:21:35.860Z,60.12
2022-09-06T18:25:05.327Z,60.85
2022-09-06T18:27:35.226Z,61.38
2022-09-06T18:30:03.642Z,59.86
2022-09-06T18:32:33.895Z,60.51
2022-09-06T18:35:01.812Z,61.43
2022-09-06T18:37:31.569Z,61.48
2022-09-06T18:40:02.044Z,62.96
2022-09-06T18:42:30.037Z,64.11
2022-09-06T18:44:58.955Z,62.13
2022-09-06T18:47:27.032Z,62.11
2022-09-06T18:49:56.960Z,64.48
2022-09-06T18:52:25.372Z,65.24
2022-09-06T18:54:53.344Z,65.79
2022-09-06T18:57:21.613Z,66.21
2022-09-06T18:59:49.813Z,68.05
2022-09-06T19:02:17.737Z,66.90
2022-09-06T19:04:46.327Z,67.78
2022-09-06T19:07:15.373Z,69.48
2022-09-06T19:09:44.976Z,69.22
2022-09-06T19:12:12.727Z,69.03
2022-09-06T19:14:40.795Z,70.65
2022-09-06T19:17:09.307Z,70.66
2022-09-06T19:19:39.394Z,71.81
2022-09-06T19:22:07.292Z,70.45
2022-09-06T19:28:18.819Z,73.56
2022-09-06T19:30:46.804Z,72.48
2022-09-06T19:33:15.430Z,74.19
2022-09-06T19:35:55.902Z,73.45
2022-09-06T19:38:52.610Z,74.31
2022-09-06T19:41:20.597Z,73.01
2022-09-06T19:43:53.174Z,75.82
2022-09-06T19:46:22.551Z,76.74
2022-09-06T19:48:52.545Z,76.97
2022-09-06T19:51:21.087Z,76.66
2022-09-06T19:53:52.855Z,78.59
2022-09-06T19:56:23.601Z,78.82
2022-09-06T19:58:56.371Z,79.21
2022-09-06T20:01:25.362Z,79.51
2022-09-06T20:03:54.572Z,79.29
2022-09-06T20:06:23.211Z,80.80
2022-09-06T20:08:52.807Z,80.63
2022-09-06T20:11:22.244Z,79.70
2022-09-06T20:13:50.453Z,80.60
2022-09-06T20:16:20.873Z,79.38
2022-09-06T20:18:49.155Z,81.01
2022-09-06T20:21:18.980Z,80.66
2022-09-06T20:23:50.379Z,79.64
2022-09-06T20:27:22.713Z,80.66
2022-09-06T20:29:50.563Z,80.11
2022-09-06T20:32:19.672Z,81.69
2022-09-06T20:34:47.691Z,81.28
2022-09-06T20:37:15.861Z,82.17
2022-09-06T20:39:44.744Z,82.15
2022-09-06T20:42:14.066Z,82.20
2022-09-06T20:44:42.052Z,81.45
2022-09-06T20:47:10.721Z,82.33
2022-09-06T20:49:39.866Z,82.36
2022-09-06T20:52:07.955Z,82.56
2022-09-06T20:54:36.728Z,82.68
2022-09-06T20:57:05.544Z,82.45
2022-09-06T20:59:34.232Z,82.98
2022-09-06T21:02:02.305Z,83.67
2022-09-06T21:04:30.654Z,84.60
2022-09-06T21:07:03.408Z,84.25
2022-09-06T21:09:32.891Z,85.02
2022-09-06T21:12:00.666Z,85.34
2022-09-06T21:14:28.950Z,86.32
2022-09-06T21:16:56.857Z,86.66
2022-09-06T21:19:26.312Z,86.37
2022-09-06T21:21:54.104Z,84.84
2022-09-06T21:24:26.783Z,84.83
2022-09-06T21:26:55.663Z,86.30
2022-09-06T21:29:23.585Z,85.37
2022-09-06T21:31:51.845Z,85.79
2022-09-06T21:34:19.902Z,85.09
2022-09-06T21:36:48.284Z,84.13
2022-09-06T21:39:17.462Z,83.26
2022-09-06T21:41:46.902Z,83.46
2022-09-06T21:44:15.492Z,83.33
2022-09-06T21:46:43.658Z,83.19
2022-09-06T21:49:14.439Z,83.13
2022-09-06T21:51:42.950Z,83.94
2022-09-06T21:54:12.120Z,83.86
2022-09-06T21:56:40.198Z,83.68
2022-09-06T21:59:11.137Z,83.61
2022-09-06T22:01:40.861Z,83.62
2022-09-06T22:04:11.580Z,83.58
2022-09-06T22:06:40.929Z,85.40
2022-09-06T22:09:11.882Z,84.00
2022-09-06T22:11:41.381Z,82.93
2022-09-06T22:14:15.242Z,83.08
2022-09-06T22:16:43.755Z,83.86
2022-09-06T22:19:13.729Z,83.80
2022-09-06T22:21:41.639Z,83.49
2022-09-06T22:24:12.012Z,82.98
2022-09-06T22:26:44.745Z,83.22
2022-09-06T22:29:16.548Z,81.60
2022-09-06T22:31:44.517Z,82.47
2022-09-06T22:34:12.503Z,80.41
2022-09-06T22:36:40.792Z,81.14
2022-09-06T22:39:09.528Z,81.23
2022-09-06T22:41:39.424Z,81.54
2022-09-06T22:45:08.671Z,82.78
2022-09-06T22:47:37.913Z,82.05
2022-09-06T22:50:06.818Z,82.61
2022-09-06T22:52:34.695Z,82.07
2022-09-06T22:55:02.731Z,82.53
2022-09-06T22:57:30.482Z,82.72
2022-09-06T23:00:00.273Z,82.14
2022-09-06T23:02:27.913Z,82.32
2022-09-06T23:04:58.221Z,82.04
2022-09-06T23:07:26.621Z,83.04
2022-09-06T23:09:54.936Z,82.05
2022-09-06T23:12:22.960Z,82.85
2022-09-06T23:14:50.784Z,82.20
2022-09-06T23:17:18.758Z,83.30
2022-09-06T23:19:46.852Z,84.16
2022-09-06T23:22:16.205Z,83.41
2022-09-06T23:24:46.290Z,82.92
2022-09-06T23:27:14.955Z,83.06
2022-09-06T23:29:43.886Z,83.86
2022-09-06T23:32:12.856Z,83.05
2022-09-06T23:34:40.870Z,83.28
2022-09-06T23:37:08.964Z,82.17
2022-09-06T23:39:40.862Z,82.39
2022-09-06T23:42:14.162Z,82.46
2022-09-06T23:44:41.920Z,82.78
2022-09-06T23:47:09.848Z,80.90
2022-09-06T23:49:38.278Z,82.25
2022-09-06T23:52:07.204Z,84.42
2022-09-06T23:54:36.388Z,83.51
2022-09-06T23:57:10.522Z,83.65
2022-09-06T23:59:38.684Z,84.00
